Time;durP1;ratioP1;P1;durP2;ratioP2;P2;SDS_P1;SDS_P2;PMS_P1;PMS_P2;Temp;Humidity;BMP_temperature;BMP_pressure;BME280_temperature;BME280_humidity;BME280_pressure;Samples;Min_cycle;Max_cycle;Signal;HPM_P1;HPM_P2
2021/10/30 00:00:21;;;;;;;17.98;6.65;;;9.00;99.90;;;;;;5058864;28;20475;-47
2021/10/30 00:02:47;;;;;;;10.68;6.00;;;9.10;99.90;;;;;;5057388;28;20021;-46
2021/10/30 00:05:13;;;;;;;8.95;6.25;;;9.20;99.90;;;;;;5057409;28;20048;-49
2021/10/30 00:07:40;;;;;;;9.20;6.57;;;9.20;99.90;;;;;;5058265;28;20440;-46
2021/10/30 00:10:06;;;;;;;11.35;6.40;;;9.10;99.90;;;;;;5056869;28;20562;-48
2021/10/30 00:12:32;;;;;;;8.93;6.10;;;9.20;99.90;;;;;;5056019;28;20024;-47
2021/10/30 00:14:58;;;;;;;8.85;5.72;;;9.10;99.90;;;;;;5058417;28;20028;-45
2021/10/30 00:17:24;;;;;;;12.40;7.30;;;9.10;99.90;;;;;;5056061;28;20025;-48
2021/10/30 00:19:49;;;;;;;11.02;7.22;;;9.10;99.90;;;;;;5061909;28;20102;-46
2021/10/30 00:22:16;;;;;;;9.48;6.18;;;9.10;99.90;;;;;;5060297;28;20025;-49
2021/10/30 00:24:41;;;;;;;13.18;8.15;;;9.00;99.90;;;;;;5056416;28;20056;-47
2021/10/30 00:27:10;;;;;;;12.32;6.93;;;9.00;99.90;;;;;;5057520;28;20125;-46
2021/10/30 00:29:35;;;;;;;11.43;7.70;;;8.90;99.90;;;;;;5058065;28;20021;-47
2021/10/30 00:32:01;;;;;;;10.68;7.10;;;8.90;99.90;;;;;;5056912;28;20402;-46
2021/10/30 00:34:26;;;;;;;10.73;7.40;;;8.90;99.90;;;;;;5061774;28;20448;-47
2021/10/30 00:36:52;;;;;;;10.73;7.10;;;8.90;99.90;;;;;;5061561;28;20025;-47
2021/10/30 00:39:18;;;;;;;9.95;6.50;;;8.90;99.90;;;;;;5060379;28;20478;-48
2021/10/30 00:41:47;;;;;;;9.65;6.15;;;8.80;99.90;;;;;;5062365;28;20029;-47
2021/10/30 00:44:15;;;;;;;12.00;6.38;;;8.80;99.90;;;;;;5061641;28;20036;-47
2021/10/30 00:46:43;;;;;;;9.40;6.25;;;8.80;99.90;;;;;;5059997;28;20120;-48
2021/10/30 00:49:10;;;;;;;10.10;7.00;;;8.70;99.90;;;;;;5062155;28;20032;-49
2021/10/30 00:51:36;;;;;;;12.55;7.43;;;8.60;99.90;;;;;;5066530;28;20540;-48
2021/10/30 00:54:03;;;;;;;10.95;7.40;;;8.60;99.90;;;;;;5060052;28;20195;-47
2021/10/30 00:56:31;;;;;;;11.90;7.45;;;8.70;99.90;;;;;;5065957;28;20032;-49
2021/10/30 00:59:00;;;;;;;10.23;6.63;;;8.60;99.90;;;;;;5070766;28;20075;-47
2021/10/30 01:01:26;;;;;;;9.77;6.75;;;8.60;99.90;;;;;;5071403;28;20028;-48
2021/10/30 01:03:52;;;;;;;12.00;7.95;;;8.60;99.90;;;;;;5070787;28;20051;-47
2021/10/30 01:06:18;;;;;;;9.25;6.70;;;8.60;99.90;;;;;;5071548;28;20024;-47
2021/10/30 01:08:46;;;;;;;14.52;8.13;;;8.60;99.90;;;;;;5070692;28;20464;-47
2021/10/30 01:11:15;;;;;;;10.23;6.50;;;8.50;99.90;;;;;;5071304;28;20436;-49
2021/10/30 01:13:41;;;;;;;10.02;6.55;;;8.50;99.90;;;;;;5071412;28;20032;-46
2021/10/30 01:16:07;;;;;;;9.10;6.63;;;8.50;99.90;;;;;;5071163;28;20123;-49
2021/10/30 01:18:32;;;;;;;9.77;7.05;;;8.40;99.90;;;;;;5068809;28;20534;-47
2021/10/30 01:20:58;;;;;;;12.60;6.82;;;8.40;99.90;;;;;;5081165;28;20099;-46
2021/10/30 01:23:23;;;;;;;9.55;6.22;;;8.40;99.90;;;;;;5090105;28;20496;-47
2021/10/30 01:25:55;;;;;;;10.45;7.13;;;8.40;99.90;;;;;;5072914;28;20028;-46
2021/10/30 01:28:21;;;;;;;13.13;7.55;;;8.30;99.90;;;;;;5090593;28;20477;-49
2021/10/30 01:30:46;;;;;;;10.90;6.88;;;8.30;99.90;;;;;;5091484;28;20032;-49
2021/10/30 01:33:12;;;;;;;12.30;8.80;;;8.30;99.90;;;;;;5091209;28;20060;-46
2021/10/30 01:35:41;;;;;;;9.68;6.68;;;8.20;99.90;;;;;;5089564;28;20452;-48
2021/10/30 01:38:08;;;;;;;9.82;6.35;;;8.10;99.90;;;;;;5090402;28;20146;-48
2021/10/30 01:40:42;;;;;;;10.85;7.32;;;8.10;99.90;;;;;;5088937;28;20227;-49
2021/10/30 01:43:08;;;;;;;10.65;7.13;;;8.00;99.90;;;;;;5089547;28;20516;-47
2021/10/30 01:45:35;;;;;;;8.52;6.30;;;8.00;99.90;;;;;;5089662;28;20052;-47
2021/10/30 01:48:01;;;;;;;8.35;6.07;;;8.00;99.90;;;;;;5089602;28;20039;-47
2021/10/30 01:50:28;;;;;;;9.20;6.25;;;8.00;99.90;;;;;;5072517;28;20035;-47
2021/10/30 01:52:59;;;;;;;10.25;6.20;;;8.00;99.90;;;;;;5081592;28;20051;-49
2021/10/30 01:55:27;;;;;;;10.25;5.38;;;7.90;99.90;;;;;;5090291;28;20126;-46
2021/10/30 01:57:52;;;;;;;10.40;6.47;;;8.00;99.90;;;;;;5089716;28;20023;-50
2021/10/30 02:00:19;;;;;;;7.80;4.97;;;7.90;99.90;;;;;;5077658;28;20107;-48
2021/10/30 02:02:45;;;;;;;9.60;5.82;;;7.80;99.90;;;;;;5061831;28;20040;-46
2021/10/30 02:05:12;;;;;;;8.65;5.70;;;7.80;99.90;;;;;;5055097;28;20049;-46
2021/10/30 02:07:38;;;;;;;6.63;5.47;;;7.80;99.90;;;;;;5058297;28;20493;-47
2021/10/30 02:10:05;;;;;;;7.82;5.60;;;7.70;99.90;;;;;;5060733;28;20024;-48
2021/10/30 02:12:31;;;;;;;8.30;5.93;;;7.80;99.90;;;;;;5052026;28;20067;-47
2021/10/30 02:14:56;;;;;;;9.20;5.93;;;7.80;99.90;;;;;;5048682;28;20048;-48
2021/10/30 02:17:22;;;;;;;11.02;6.72;;;7.80;99.90;;;;;;5050023;28;20029;-47
2021/10/30 02:19:47;;;;;;;11.52;7.00;;;7.70;99.90;;;;;;5053879;28;20023;-49
2021/10/30 02:22:13;;;;;;;8.80;6.18;;;7.80;99.90;;;;;;5081666;28;20042;-47
2021/10/30 02:24:38;;;;;;;8.57;6.05;;;7.80;99.90;;;;;;5090352;28;20032;-48
2021/10/30 02:27:04;;;;;;;9.07;5.90;;;7.70;99.90;;;;;;5089295;28;20043;-48
2021/10/30 02:29:30;;;;;;;8.20;5.20;;;7.60;99.90;;;;;;5087170;28;20496;-46
2021/10/30 02:31:55;;;;;;;8.65;6.07;;;7.60;99.90;;;;;;5079565;28;20028;-47
2021/10/30 02:34:21;;;;;;;9.10;6.03;;;7.50;99.90;;;;;;5075606;28;20029;-47
2021/10/30 02:36:47;;;;;;;8.98;5.18;;;7.50;99.90;;;;;;5072756;28;20114;-46
2021/10/30 02:39:12;;;;;;;11.40;5.85;;;7.50;99.90;;;;;;5080871;28;20024;-48
2021/10/30 02:41:38;;;;;;;8.18;5.43;;;7.40;99.90;;;;;;5089476;28;20141;-49
2021/10/30 02:44:04;;;;;;;9.80;6.15;;;7.40;99.90;;;;;;5089726;28;20054;-48
2021/10/30 02:46:30;;;;;;;9.52;6.30;;;7.40;99.90;;;;;;5089496;28;20478;-50
2021/10/30 02:48:55;;;;;;;8.82;6.18;;;7.40;99.90;;;;;;5082105;28;20062;-47
2021/10/30 02:51:21;;;;;;;9.70;5.93;;;7.40;99.90;;;;;;5071214;28;20067;-48
2021/10/30 02:53:46;;;;;;;9.63;5.72;;;7.40;99.90;;;;;;5088385;28;20028;-50
2021/10/30 02:56:12;;;;;;;14.48;5.60;;;7.40;99.90;;;;;;5089255;28;20111;-47
2021/10/30 02:58:38;;;;;;;10.18;6.40;;;7.40;99.90;;;;;;5088920;28;20513;-50
2021/10/30 03:01:03;;;;;;;8.88;6.53;;;7.30;99.90;;;;;;5089430;28;20030;-48
2021/10/30 03:03:29;;;;;;;9.48;6.50;;;7.20;99.90;;;;;;5089266;28;20038;-48
2021/10/30 03:05:54;;;;;;;10.52;5.90;;;7.20;99.90;;;;;;5088985;28;20263;-48
2021/10/30 03:08:20;;;;;;;13.38;7.25;;;7.20;99.90;;;;;;5088606;28;20026;-48
2021/10/30 03:10:45;;;;;;;10.13;7.22;;;7.30;99.90;;;;;;5089256;28;20028;-50
2021/10/30 03:13:11;;;;;;;18.70;11.18;;;7.30;99.90;;;;;;5089284;28;20065;-50
2021/10/30 03:15:36;;;;;;;13.43;7.68;;;7.50;99.90;;;;;;5089387;28;20062;-47
2021/10/30 03:18:02;;;;;;;11.73;8.00;;;7.60;99.90;;;;;;5088838;28;20012;-48
2021/10/30 03:20:27;;;;;;;11.35;7.13;;;7.70;99.90;;;;;;5076073;28;20537;-49
2021/10/30 03:22:53;;;;;;;15.00;7.70;;;7.70;99.90;;;;;;5080203;28;20024;-48
2021/10/30 03:25:19;;;;;;;10.65;6.88;;;7.80;99.90;;;;;;5089536;28;20067;-48
2021/10/30 03:27:44;;;;;;;12.57;7.75;;;7.90;99.90;;;;;;5088434;28;20028;-49
2021/10/30 03:30:11;;;;;;;13.88;8.30;;;8.00;99.90;;;;;;5088563;28;20046;-46
2021/10/30 03:32:36;;;;;;;9.27;7.30;;;8.10;99.90;;;;;;5086871;28;20035;-48
2021/10/30 03:35:02;;;;;;;15.40;7.70;;;8.10;99.90;;;;;;5088370;28;20028;-47
2021/10/30 03:37:28;;;;;;;11.57;7.47;;;8.20;99.90;;;;;;5088199;28;20469;-49
2021/10/30 03:39:53;;;;;;;12.00;7.13;;;8.30;99.90;;;;;;5088383;28;20039;-49
2021/10/30 03:42:19;;;;;;;9.80;6.90;;;8.30;99.90;;;;;;5087292;28;20034;-47
2021/10/30 03:44:45;;;;;;;10.02;7.90;;;8.30;99.90;;;;;;5088639;28;20069;-47
2021/10/30 03:47:11;;;;;;;12.50;7.57;;;8.30;99.90;;;;;;5087890;28;20273;-47
2021/10/30 03:49:37;;;;;;;11.27;7.57;;;8.30;99.90;;;;;;5074742;28;20514;-48
2021/10/30 03:52:03;;;;;;;12.07;7.10;;;8.30;99.90;;;;;;5078063;28;20031;-47
2021/10/30 03:54:28;;;;;;;9.65;7.43;;;8.30;99.90;;;;;;5087700;28;20500;-49
2021/10/30 03:56:54;;;;;;;8.50;6.32;;;8.30;99.90;;;;;;5087783;28;20059;-47
2021/10/30 03:59:19;;;;;;;9.57;6.38;;;8.20;99.90;;;;;;5087466;28;20166;-46
2021/10/30 04:01:45;;;;;;;10.95;6.80;;;8.10;99.90;;;;;;5088123;28;20070;-49
2021/10/30 04:04:10;;;;;;;15.68;7.28;;;8.20;99.90;;;;;;5088228;28;20481;-47
2021/10/30 04:06:37;;;;;;;9.10;6.55;;;8.20;99.90;;;;;;5087158;28;20227;-47
2021/10/30 04:09:04;;;;;;;10.02;7.13;;;8.20;99.90;;;;;;5086849;28;20453;-48
2021/10/30 04:11:29;;;;;;;12.27;8.38;;;8.20;99.90;;;;;;5087475;28;20027;-47
2021/10/30 04:13:55;;;;;;;11.30;7.18;;;8.20;99.90;;;;;;5087582;28;20024;-46
2021/10/30 04:16:20;;;;;;;12.35;7.72;;;8.20;99.90;;;;;;5087375;28;20023;-49
2021/10/30 04:18:46;;;;;;;11.95;7.57;;;8.20;99.90;;;;;;5087070;28;20117;-49
2021/10/30 04:21:12;;;;;;;11.43;8.43;;;8.30;99.90;;;;;;5069452;28;20386;-47
2021/10/30 04:23:38;;;;;;;12.80;7.78;;;8.30;99.90;;;;;;5085204;28;20020;-49
2021/10/30 04:26:05;;;;;;;14.88;9.07;;;8.30;99.90;;;;;;5087634;28;20016;-46
2021/10/30 04:28:30;;;;;;;12.63;8.25;;;8.40;99.90;;;;;;5086562;28;20047;-46
2021/10/30 04:31:01;;;;;;;10.50;7.65;;;8.50;99.90;;;;;;5087502;28;20024;-48
2021/10/30 04:33:27;;;;;;;;;;;8.50;99.90;;;;;;5088369;28;20200;-46
2021/10/30 04:35:52;;;;;;;12.55;8.32;;;8.70;99.90;;;;;;5087313;28;20268;-48
2021/10/30 04:38:18;;;;;;;13.30;8.32;;;8.70;99.90;;;;;;5087051;28;20028;-50
2021/10/30 04:40:43;;;;;;;10.60;7.47;;;8.70;99.90;;;;;;5075530;28;20270;-50
2021/10/30 04:43:09;;;;;;;8.85;7.13;;;8.70;99.90;;;;;;5056260;28;20029;-49
2021/10/30 04:45:38;;;;;;;11.63;7.43;;;8.70;99.90;;;;;;5057881;28;20059;-47
2021/10/30 04:48:03;;;;;;;10.75;7.30;;;8.80;99.90;;;;;;5054528;28;20427;-49
2021/10/30 04:50:29;;;;;;;12.07;7.28;;;8.70;99.90;;;;;;5056979;28;20035;-49
2021/10/30 04:52:55;;;;;;;9.95;6.97;;;8.80;99.90;;;;;;5058164;28;20439;-49
2021/10/30 04:55:21;;;;;;;10.30;7.05;;;8.70;99.90;;;;;;5047844;28;20021;-50
2021/10/30 04:57:46;;;;;;;9.43;6.82;;;8.80;99.90;;;;;;5047186;28;20029;-48
2021/10/30 05:00:12;;;;;;;17.35;7.43;;;8.80;99.90;;;;;;5053017;28;20033;-49
2021/10/30 05:02:37;;;;;;;11.23;7.00;;;8.90;99.90;;;;;;5047969;28;20062;-47
2021/10/30 05:05:03;;;;;;;9.18;6.68;;;8.90;99.90;;;;;;5047727;28;20040;-47
2021/10/30 05:07:29;;;;;;;10.00;6.97;;;8.90;99.90;;;;;;5047070;28;20163;-47
2021/10/30 05:09:54;;;;;;;8.60;6.18;;;8.90;99.90;;;;;;5047679;28;20386;-48
2021/10/30 05:12:20;;;;;;;9.85;6.80;;;8.80;99.90;;;;;;5055480;28;20028;-48
2021/10/30 05:14:45;;;;;;;8.82;6.18;;;8.80;99.90;;;;;;5057695;28;20020;-50
2021/10/30 05:17:11;;;;;;;9.13;6.22;;;8.70;99.90;;;;;;5060016;28;20021;-51
2021/10/30 05:19:36;;;;;;;7.97;5.55;;;8.70;99.90;;;;;;5064416;28;20036;-50
2021/10/30 05:22:02;;;;;;;8.13;5.97;;;8.60;99.90;;;;;;5081050;28;20115;-50
2021/10/30 05:24:28;;;;;;;8.23;5.60;;;8.60;99.90;;;;;;5053889;28;20025;-48
2021/10/30 05:26:54;;;;;;;7.82;5.68;;;8.50;99.90;;;;;;5050550;28;20526;-47
2021/10/30 05:29:19;;;;;;;7.88;5.82;;;8.40;99.90;;;;;;5050325;28;20116;-48
2021/10/30 05:31:45;;;;;;;10.23;5.72;;;8.40;99.90;;;;;;5050826;28;20283;-49
2021/10/30 05:34:10;;;;;;;9.50;7.18;;;8.30;99.90;;;;;;5050861;28;20017;-49
2021/10/30 05:36:37;;;;;;;11.05;7.32;;;8.20;99.90;;;;;;5050456;28;20079;-47
2021/10/30 05:39:15;;;;;;;10.85;7.28;;;8.30;99.90;;;;;;5050248;28;20025;-47
2021/10/30 05:41:40;;;;;;;14.65;7.63;;;8.30;99.90;;;;;;5050971;28;20021;-49
2021/10/30 05:44:06;;;;;;;11.23;7.65;;;8.30;99.90;;;;;;5050974;28;20032;-50
2021/10/30 05:46:32;;;;;;;11.45;7.38;;;8.30;99.90;;;;;;5050585;28;20037;-50
2021/10/30 05:48:59;;;;;;;10.15;7.10;;;8.30;99.90;;;;;;5049717;28;20390;-49
2021/10/30 05:51:25;;;;;;;8.82;6.53;;;8.20;99.90;;;;;;5073783;28;20024;-50
2021/10/30 05:53:50;;;;;;;9.55;6.70;;;8.20;99.90;;;;;;5089898;28;20032;-47
2021/10/30 05:56:16;;;;;;;10.40;6.65;;;8.10;99.90;;;;;;5090672;28;20028;-47
2021/10/30 05:58:41;;;;;;;11.18;8.23;;;8.10;99.90;;;;;;5088688;28;20012;-50
2021/10/30 06:01:07;;;;;;;11.63;7.68;;;8.10;99.90;;;;;;5090853;28;20016;-46
2021/10/30 06:03:32;;;;;;;12.77;7.75;;;8.20;99.90;;;;;;5090533;28;20024;-48
2021/10/30 06:05:58;;;;;;;12.15;7.70;;;8.20;99.90;;;;;;5090100;28;20020;-48
2021/10/30 06:08:24;;;;;;;11.88;7.72;;;8.20;99.90;;;;;;5053417;28;20238;-48
2021/10/30 06:10:50;;;;;;;11.20;6.88;;;8.20;99.90;;;;;;5058322;28;20028;-51
2021/10/30 06:13:16;;;;;;;10.57;7.22;;;8.10;99.90;;;;;;5063780;28;20457;-50
2021/10/30 06:15:41;;;;;;;11.50;6.93;;;8.10;99.90;;;;;;5069681;28;20104;-48
2021/10/30 06:18:07;;;;;;;12.45;7.40;;;8.10;99.90;;;;;;5069385;28;20313;-47
2021/10/30 06:20:33;;;;;;;10.30;7.55;;;8.10;99.90;;;;;;5074629;28;20039;-46
2021/10/30 06:22:59;;;;;;;9.13;6.75;;;8.00;99.90;;;;;;5082008;28;20024;-50
2021/10/30 06:25:25;;;;;;;12.13;7.85;;;8.00;99.90;;;;;;5089996;28;20020;-49
2021/10/30 06:27:50;;;;;;;11.75;8.45;;;7.90;99.90;;;;;;5089393;28;20323;-48
2021/10/30 06:30:16;;;;;;;12.13;8.40;;;7.90;99.90;;;;;;5089602;28;20024;-50
2021/10/30 06:32:41;;;;;;;12.23;7.88;;;7.90;99.90;;;;;;5088492;28;20028;-50
2021/10/30 06:35:09;;;;;;;14.75;9.18;;;7.90;99.90;;;;;;5089382;28;20058;-50
2021/10/30 06:37:34;;;;;;;14.82;9.30;;;7.90;99.90;;;;;;5089178;28;20016;-49
2021/10/30 06:40:00;;;;;;;12.35;8.63;;;7.90;99.90;;;;;;5089472;28;20077;-47
2021/10/30 06:42:25;;;;;;;12.73;8.98;;;7.90;99.90;;;;;;5089817;28;20036;-47
2021/10/30 06:44:51;;;;;;;12.77;8.82;;;7.90;99.90;;;;;;5089839;28;20062;-47
2021/10/30 06:47:17;;;;;;;13.55;8.82;;;7.90;99.90;;;;;;5088905;28;20035;-50
2021/10/30 06:49:42;;;;;;;13.00;8.30;;;7.90;99.90;;;;;;5082683;28;20048;-47
2021/10/30 06:52:09;;;;;;;11.77;8.32;;;8.00;99.90;;;;;;5081191;28;20544;-48
2021/10/30 06:54:35;;;;;;;11.77;8.63;;;8.00;99.90;;;;;;5089632;28;20050;-47
2021/10/30 06:57:01;;;;;;;11.90;8.30;;;8.00;99.90;;;;;;5087523;28;20051;-49
2021/10/30 06:59:28;;;;;;;14.93;7.90;;;8.10;99.90;;;;;;5089046;28;20032;-50
2021/10/30 07:01:54;;;;;;;13.05;8.35;;;8.20;99.90;;;;;;5088141;28;20024;-47
2021/10/30 07:04:19;;;;;;;15.43;10.48;;;8.30;99.90;;;;;;5089608;28;20039;-47
2021/10/30 07:06:45;;;;;;;13.50;8.88;;;8.40;99.90;;;;;;5089285;28;20457;-50
2021/10/30 07:09:10;;;;;;;12.70;9.05;;;8.50;99.90;;;;;;5088693;28;20083;-46
2021/10/30 07:11:36;;;;;;;12.50;9.48;;;8.60;99.90;;;;;;5089304;28;20036;-52
2021/10/30 07:14:01;;;;;;;16.23;10.43;;;8.70;99.90;;;;;;5089188;28;20074;-50
2021/10/30 07:16:27;;;;;;;15.65;9.70;;;8.80;99.90;;;;;;5088967;28;20380;-50
2021/10/30 07:18:52;;;;;;;13.32;9.80;;;8.90;99.90;;;;;;5086932;28;20027;-47
2021/10/30 07:21:18;;;;;;;15.00;9.88;;;9.10;99.90;;;;;;5075848;28;20024;-50
2021/10/30 07:23:43;;;;;;;12.13;9.00;;;9.20;99.90;;;;;;5086595;28;20060;-51
2021/10/30 07:26:09;;;;;;;13.95;9.55;;;9.30;99.90;;;;;;5088818;28;20723;-50
2021/10/30 07:28:35;;;;;;;14.95;9.35;;;9.40;99.90;;;;;;5088203;28;20392;-51
2021/10/30 07:31:00;;;;;;;16.42;10.77;;;9.50;99.90;;;;;;5088817;28;20464;-47
2021/10/30 07:33:26;;;;;;;15.27;10.02;;;9.60;99.90;;;;;;5088800;28;20034;-50
2021/10/30 07:35:51;;;;;;;13.85;10.80;;;9.80;99.90;;;;;;5088573;28;20068;-48
2021/10/30 07:38:17;;;;;;;14.68;10.18;;;9.90;99.90;;;;;;5088167;28;20031;-49
2021/10/30 07:40:43;;;;;;;17.50;10.15;;;10.00;99.90;;;;;;5089053;28;20122;-48
2021/10/30 07:43:08;;;;;;;17.23;10.65;;;10.10;99.90;;;;;;5088000;28;20039;-50
2021/10/30 07:45:34;;;;;;;16.63;10.32;;;10.30;99.90;;;;;;5089479;28;20032;-51
2021/10/30 07:48:00;;;;;;;13.88;10.00;;;10.30;99.90;;;;;;5088322;28;20104;-48
2021/10/30 07:50:29;;;;;;;15.00;10.10;;;10.40;99.90;;;;;;5082265;28;20287;-47
2021/10/30 07:52:57;;;;;;;12.60;9.88;;;10.50;99.90;;;;;;5080134;28;20032;-50
2021/10/30 07:55:22;;;;;;;14.32;10.80;;;10.50;99.90;;;;;;5088514;28;20020;-50
2021/10/30 07:57:48;;;;;;;18.73;11.70;;;10.60;99.90;;;;;;5086666;28;20016;-51
2021/10/30 08:00:14;;;;;;;18.50;10.82;;;10.60;99.90;;;;;;5088584;28;20020;-49
2021/10/30 08:02:43;;;;;;;18.90;11.45;;;10.60;99.90;;;;;;5088709;28;20047;-51
2021/10/30 08:05:09;;;;;;;15.52;11.05;;;10.70;99.90;;;;;;5088058;28;20036;-52
2021/10/30 08:07:36;;;;;;;20.70;12.85;;;10.70;99.90;;;;;;5087542;28;20024;-52
2021/10/30 08:10:04;;;;;;;17.30;12.23;;;10.70;99.90;;;;;;5087798;28;20020;-51
2021/10/30 08:12:30;;;;;;;16.98;12.00;;;10.60;99.90;;;;;;5087187;28;20023;-49
2021/10/30 08:14:55;;;;;;;23.58;13.38;;;10.70;99.90;;;;;;5087922;28;20032;-50
2021/10/30 08:17:21;;;;;;;18.00;11.85;;;10.60;99.90;;;;;;5087360;28;20284;-51
2021/10/30 08:19:46;;;;;;;19.05;12.82;;;10.60;99.90;;;;;;5082968;28;20037;-50
2021/10/30 08:22:11;;;;;;;18.58;12.35;;;10.60;99.90;;;;;;5079537;28;20458;-51
2021/10/30 08:24:37;;;;;;;19.50;12.90;;;10.60;99.90;;;;;;5088668;28;20036;-49
2021/10/30 08:27:03;;;;;;;18.48;12.07;;;10.60;99.90;;;;;;5087853;28;20379;-51
2021/10/30 08:29:29;;;;;;;20.33;12.25;;;10.60;99.90;;;;;;5088286;28;20047;-51
2021/10/30 08:31:55;;;;;;;15.63;10.65;;;10.70;99.90;;;;;;5088214;28;20117;-50
2021/10/30 08:34:20;;;;;;;17.67;12.20;;;10.70;99.90;;;;;;5088351;28;20032;-50
2021/10/30 08:36:46;;;;;;;19.08;12.75;;;10.80;99.90;;;;;;5087938;28;20516;-50
2021/10/30 08:39:11;;;;;;;15.73;11.60;;;10.70;99.90;;;;;;5087460;28;20028;-49
2021/10/30 08:41:38;;;;;;;15.80;10.98;;;10.80;99.90;;;;;;5088190;28;20099;-49
2021/10/30 08:44:04;;;;;;;19.13;12.10;;;10.90;99.90;;;;;;5088082;28;20466;-50
2021/10/30 08:46:30;;;;;;;18.17;12.30;;;10.90;99.90;;;;;;5088506;28;20040;-51
2021/10/30 08:49:01;;;;;;;20.25;12.88;;;11.00;99.90;;;;;;5087882;28;20035;-51
2021/10/30 08:51:28;;;;;;;18.40;12.25;;;11.10;99.90;;;;;;5074474;28;20078;-50
2021/10/30 08:53:53;;;;;;;18.65;13.55;;;11.10;99.90;;;;;;5089688;28;20020;-51
2021/10/30 08:56:21;;;;;;;18.60;13.18;;;11.30;99.90;;;;;;5092183;28;20419;-49
2021/10/30 08:58:47;;;;;;;21.23;12.82;;;11.30;99.90;;;;;;5091201;28;20098;-49
2021/10/30 09:01:13;;;;;;;17.40;12.35;;;11.40;99.90;;;;;;5091004;28;20120;-48
2021/10/30 09:03:41;;;;;;;23.90;14.70;;;11.50;99.90;;;;;;5089999;28;20067;-48
2021/10/30 09:06:07;;;;;;;26.10;16.33;;;11.60;99.90;;;;;;5089805;28;20090;-51
2021/10/30 09:08:34;;;;;;;20.98;14.07;;;11.60;99.90;;;;;;5089354;28;20377;-50
2021/10/30 09:11:06;;;;;;;20.05;13.98;;;11.80;99.90;;;;;;5090232;28;20031;-48
2021/10/30 09:13:31;;;;;;;26.77;15.98;;;11.90;99.90;;;;;;5090582;28;20077;-52
2021/10/30 09:15:59;;;;;;;24.95;16.27;;;12.20;99.90;;;;;;5090669;28;20339;-51
2021/10/30 09:18:32;;;;;;;23.98;16.77;;;12.40;99.90;;;;;;5090758;28;20432;-51
2021/10/30 09:21:19;;;;;;;24.77;16.55;;;12.70;99.90;;;;;;5083112;28;20031;-52
2021/10/30 09:23:50;;;;;;;27.38;16.83;;;13.40;99.90;;;;;;5089370;28;20062;-49
2021/10/30 09:26:15;;;;;;;20.20;14.80;;;14.20;99.90;;;;;;5091530;28;20051;-52
2021/10/30 09:28:53;;;;;;;23.10;15.43;;;15.00;99.90;;;;;;5091255;28;20063;-51
2021/10/30 09:31:26;;;;;;;20.67;15.40;;;15.80;99.90;;;;;;5091495;28;20039;-52
2021/10/30 09:33:56;;;;;;;19.50;14.32;;;17.00;99.20;;;;;;5091362;28;20121;-52
2021/10/30 09:36:27;;;;;;;24.52;15.63;;;18.10;95.20;;;;;;5090894;28;20097;-52
2021/10/30 09:38:55;;;;;;;19.40;14.70;;;18.50;91.40;;;;;;5090387;28;20485;-53
2021/10/30 09:41:20;;;;;;;21.25;16.05;;;18.50;91.60;;;;;;5091166;28;20024;-52
2021/10/30 09:44:07;;;;;;;19.83;15.00;;;18.20;90.50;;;;;;5091518;28;20562;-52
2021/10/30 09:46:35;;;;;;;21.10;16.55;;;17.80;90.20;;;;;;5090957;28;20025;-52
2021/10/30 09:49:13;;;;;;;25.52;18.15;;;17.40;90.00;;;;;;5090363;28;20474;-52
2021/10/30 09:51:39;;;;;;;25.35;17.23;;;17.10;88.70;;;;;;5076976;28;20387;-52
2021/10/30 09:54:06;;;;;;;22.63;16.75;;;16.70;90.50;;;;;;5090780;28;20051;-51
2021/10/30 09:56:43;;;;;;;22.63;15.88;;;16.40;91.60;;;;;;5090802;28;20317;-51
2021/10/30 09:59:16;;;;;;;28.05;19.80;;;16.10;91.80;;;;;;5090148;28;20026;-51
2021/10/30 10:01:46;;;;;;;27.98;20.83;;;15.90;91.80;;;;;;5090747;28;20024;-51
2021/10/30 10:04:13;;;;;;;27.98;20.17;;;15.60;92.20;;;;;;5090530;28;20047;-50
2021/10/30 10:06:41;;;;;;;27.20;20.58;;;15.40;92.60;;;;;;5090326;28;20093;-51
2021/10/30 10:09:07;;;;;;;30.08;21.67;;;15.20;93.10;;;;;;5088686;28;20214;-51
2021/10/30 10:11:33;;;;;;;32.90;22.63;;;15.20;93.10;;;;;;5089242;28;20040;-51
2021/10/30 10:13:59;;;;;;;28.60;20.65;;;15.10;93.30;;;;;;5067523;28;20359;-50
2021/10/30 10:16:26;;;;;;;33.58;23.30;;;14.90;93.70;;;;;;5060549;28;20439;-50
2021/10/30 10:18:54;;;;;;;35.05;23.15;;;14.60;94.50;;;;;;5057988;28;20494;-51
2021/10/30 10:21:23;;;;;;;34.97;25.05;;;14.50;95.10;;;;;;5072342;28;20024;-51
2021/10/30 10:23:49;;;;;;;35.38;25.52;;;14.30;94.90;;;;;;5072773;28;20534;-52
2021/10/30 10:26:15;;;;;;;37.53;25.75;;;14.30;95.40;;;;;;5071347;28;20100;-49
2021/10/30 10:28:41;;;;;;;36.58;24.65;;;14.10;95.80;;;;;;5077817;28;20028;-51
2021/10/30 10:31:24;;;;;;;36.60;25.95;;;14.00;96.50;;;;;;5069430;28;20080;-50
2021/10/30 10:34:13;;;;;;;44.88;27.63;;;13.90;96.60;;;;;;5070506;28;20058;-52
2021/10/30 10:36:40;;;;;;;42.90;27.90;;;13.90;96.90;;;;;;5069324;28;20542;-49
2021/10/30 10:39:06;;;;;;;39.13;27.70;;;13.80;97.30;;;;;;5069574;28;20386;-51
2021/10/30 10:41:37;;;;;;;40.28;29.52;;;13.80;98.00;;;;;;5070407;28;20119;-49
2021/10/30 10:44:07;;;;;;;42.30;26.35;;;13.80;98.00;;;;;;5070661;28;20029;-52
2021/10/30 10:46:36;;;;;;;39.97;27.55;;;13.70;98.30;;;;;;5068343;28;20062;-51
2021/10/30 10:49:24;;;;;;;40.58;27.58;;;13.60;98.60;;;;;;5067968;28;20482;-51
2021/10/30 10:52:16;;;;;;;43.55;27.63;;;13.60;98.80;;;;;;5078533;28;20530;-51
2021/10/30 10:55:02;;;;;;;36.72;25.92;;;13.60;99.20;;;;;;5088850;28;20083;-52
2021/10/30 10:57:47;;;;;;;38.25;25.02;;;13.50;99.70;;;;;;5086877;28;20020;-52
2021/10/30 11:00:19;;;;;;;38.25;25.98;;;13.60;99.90;;;;;;5086460;28;20016;-50
2021/10/30 11:02:50;;;;;;;42.13;27.88;;;13.60;99.90;;;;;;5054790;28;20028;-52
2021/10/30 11:05:19;;;;;;;37.30;25.75;;;13.60;99.90;;;;;;5059482;28;20462;-50
2021/10/30 11:08:20;;;;;;;43.10;28.30;;;13.60;99.90;;;;;;5047191;28;20396;-51
2021/10/30 11:10:45;;;;;;;39.78;26.83;;;13.60;99.90;;;;;;5047290;28;20033;-51
2021/10/30 11:13:16;;;;;;;41.20;27.95;;;13.60;99.90;;;;;;5055580;28;20031;-51
2021/10/30 11:15:52;;;;;;;43.20;27.08;;;13.70;99.90;;;;;;5058078;28;20029;-51
2021/10/30 11:18:30;;;;;;;36.67;25.55;;;13.70;99.90;;;;;;5057708;28;20240;-50
2021/10/30 11:21:07;;;;;;;41.47;27.45;;;13.70;99.90;;;;;;5062657;28;20024;-51
2021/10/30 11:23:51;;;;;;;41.45;27.02;;;13.80;99.90;;;;;;5084518;28;20107;-49
2021/10/30 11:26:22;;;;;;;44.25;27.08;;;13.70;99.80;;;;;;5088763;28;20020;-51
2021/10/30 11:28:48;;;;;;;38.63;27.95;;;13.80;99.60;;;;;;5087786;28;20519;-49
2021/10/30 11:31:17;;;;;;;43.38;27.75;;;13.70;99.50;;;;;;5070003;28;20029;-51
2021/10/30 11:33:43;;;;;;;40.70;28.58;;;13.80;99.30;;;;;;5065839;28;20024;-51
2021/10/30 11:36:15;;;;;;;44.97;28.17;;;13.80;99.20;;;;;;5067789;28;20020;-51
2021/10/30 11:38:44;;;;;;;42.28;26.77;;;13.80;99.20;;;;;;5055103;28;20021;-51
2021/10/30 11:41:14;;;;;;;36.45;25.58;;;13.80;99.30;;;;;;5047072;28;20134;-51
2021/10/30 11:43:41;;;;;;;36.67;25.02;;;13.80;98.90;;;;;;5047329;28;20025;-50
2021/10/30 11:46:10;;;;;;;37.50;26.15;;;13.90;98.80;;;;;;5047742;28;20029;-50
2021/10/30 11:48:42;;;;;;;42.08;27.35;;;13.90;98.70;;;;;;5046777;28;20025;-51
2021/10/30 11:51:09;;;;;;;37.38;24.52;;;13.90;98.20;;;;;;5057224;28;20214;-51
2021/10/30 11:53:39;;;;;;;33.90;24.38;;;14.00;97.60;;;;;;5072968;28;20037;-50
2021/10/30 11:56:11;;;;;;;37.13;23.95;;;14.00;97.40;;;;;;5067716;28;20028;-49
2021/10/30 11:58:51;;;;;;;39.50;22.75;;;14.00;97.10;;;;;;5065778;28;20028;-51
2021/10/30 12:01:41;;;;;;;30.55;21.52;;;14.00;97.30;;;;;;5062986;28;20108;-50
2021/10/30 12:04:32;;;;;;;31.20;22.08;;;14.10;97.40;;;;;;5057355;28;20043;-51
2021/10/30 12:07:03;;;;;;;35.75;25.00;;;14.00;99.50;;;;;;5060318;28;20074;-51
2021/10/30 12:09:43;;;;;;;32.42;23.80;;;13.90;99.90;;;;;;5068192;28;20111;-51
2021/10/30 12:12:11;;;;;;;34.33;23.33;;;13.90;99.90;;;;;;5069500;28;20036;-51
2021/10/30 12:14:42;;;;;;;31.58;23.23;;;13.90;99.90;;;;;;5066715;28;20491;-51
2021/10/30 12:17:26;;;;;;;32.50;23.55;;;13.90;99.90;;;;;;5073048;28;20475;-51
2021/10/30 12:19:55;;;;;;;33.83;23.95;;;13.90;99.90;;;;;;5067293;28;20074;-50
2021/10/30 12:22:21;;;;;;;34.40;24.60;;;13.90;99.90;;;;;;5071357;28;20431;-50
2021/10/30 12:24:58;;;;;;;40.20;24.50;;;13.90;99.50;;;;;;5080094;28;20028;-51
2021/10/30 12:27:24;;;;;;;33.15;24.88;;;14.00;99.00;;;;;;5065336;28;20029;-51
2021/10/30 12:29:49;;;;;;;35.85;24.95;;;14.00;99.30;;;;;;5070603;28;20029;-51
2021/10/30 12:32:16;;;;;;;38.58;26.08;;;14.00;99.40;;;;;;5071988;28;20509;-51
2021/10/30 12:35:02;;;;;;;37.72;24.92;;;13.90;99.40;;;;;;5070127;28;20020;-50
2021/10/30 12:37:31;;;;;;;39.58;26.92;;;13.90;99.60;;;;;;5070410;28;20051;-50
2021/10/30 12:40:07;;;;;;;46.80;28.20;;;13.90;99.70;;;;;;5071572;28;20043;-51
2021/10/30 12:42:36;;;;;;;44.00;28.95;;;13.90;99.90;;;;;;5071645;28;20033;-51